createdAt,value
2023-08-15T00:02:07.807Z,3.50
2023-08-15T00:04:36.647Z,2.90
2023-08-15T00:07:07.133Z,3.33
2023-08-15T00:09:34.124Z,3.05
2023-08-15T00:12:01.445Z,2.70
2023-08-15T00:14:28.586Z,2.80
2023-08-15T00:16:55.802Z,2.88
2023-08-15T00:19:22.947Z,2.97
2023-08-15T00:21:49.970Z,2.75
2023-08-15T00:24:17.036Z,3.17
2023-08-15T00:26:44.040Z,2.97
2023-08-15T00:29:11.080Z,3.72
2023-08-15T00:31:38.055Z,3.70
2023-08-15T00:34:05.453Z,3.63
2023-08-15T00:36:32.675Z,2.90
2023-08-15T00:39:03.521Z,3.30
2023-08-15T00:41:31.101Z,3.50
2023-08-15T00:43:59.471Z,2.92
2023-08-15T00:46:29.392Z,2.63
2023-08-15T00:48:57.544Z,3.05
2023-08-15T00:51:25.130Z,3.35
2023-08-15T00:53:52.717Z,2.80
2023-08-15T00:56:21.239Z,2.75
2023-08-15T00:58:48.267Z,2.58
2023-08-15T01:01:18.920Z,3.00
2023-08-15T01:03:47.909Z,2.70
2023-08-15T01:06:15.394Z,2.88
2023-08-15T01:08:42.777Z,3.03
2023-08-15T01:11:09.914Z,3.03
2023-08-15T01:13:54.460Z,2.85
2023-08-15T01:16:29.529Z,3.03
2023-08-15T01:19:16.552Z,3.00
2023-08-15T01:21:48.848Z,3.10
2023-08-15T01:24:18.627Z,2.92
2023-08-15T01:26:45.933Z,3.20
2023-08-15T01:29:12.907Z,3.25
2023-08-15T01:31:53.533Z,3.00
2023-08-15T01:34:35.238Z,3.00
2023-08-15T01:37:09.697Z,2.78
2023-08-15T01:39:39.568Z,2.88
2023-08-15T01:42:07.944Z,2.65
2023-08-15T01:44:36.597Z,3.05
2023-08-15T01:47:03.640Z,3.97
2023-08-15T01:49:30.633Z,2.80
2023-08-15T01:51:58.537Z,2.90
2023-08-15T01:54:25.909Z,2.72
2023-08-15T01:56:52.887Z,3.15
2023-08-15T01:59:20.195Z,2.75
2023-08-15T02:01:47.269Z,3.03
2023-08-15T02:04:14.297Z,2.75
2023-08-15T02:06:41.381Z,3.13
2023-08-15T02:09:09.013Z,2.90
2023-08-15T02:11:36.064Z,3.00
2023-08-15T02:14:03.117Z,3.17
2023-08-15T02:16:30.324Z,3.20
2023-08-15T02:18:57.492Z,2.25
2023-08-15T02:21:27.249Z,3.03
2023-08-15T02:23:54.277Z,3.05
2023-08-15T02:26:22.829Z,2.80
2023-08-15T02:28:49.911Z,2.72
2023-08-15T02:31:16.935Z,2.90
2023-08-15T02:33:43.997Z,2.80
2023-08-15T02:36:10.987Z,2.63
2023-08-15T02:38:38.220Z,2.35
2023-08-15T02:41:06.576Z,2.70
2023-08-15T02:43:33.538Z,3.28
2023-08-15T02:46:00.569Z,3.17
2023-08-15T02:48:27.623Z,2.90
2023-08-15T02:50:54.769Z,3.03
2023-08-15T02:53:21.920Z,2.70
2023-08-15T02:55:52.225Z,2.58
2023-08-15T02:58:19.577Z,2.42
2023-08-15T03:00:46.821Z,3.17
2023-08-15T03:03:15.576Z,2.90
2023-08-15T03:05:42.648Z,2.55
2023-08-15T03:08:09.679Z,2.58
2023-08-15T03:10:39.830Z,3.28
2023-08-15T03:13:06.871Z,2.75
2023-08-15T03:15:33.966Z,2.83
2023-08-15T03:18:01.238Z,2.92
2023-08-15T03:20:30.907Z,2.67
2023-08-15T03:22:58.056Z,2.60
2023-08-15T03:25:25.312Z,2.70
2023-08-15T03:27:52.581Z,2.67
2023-08-15T03:30:19.682Z,2.75
2023-08-15T03:32:47.090Z,2.45
2023-08-15T03:35:14.218Z,2.90
2023-08-15T03:37:41.778Z,2.80
2023-08-15T03:40:09.953Z,2.75
2023-08-15T03:42:36.950Z,2.42
2023-08-15T03:45:06.866Z,2.90
2023-08-15T03:47:33.989Z,2.97
2023-08-15T03:50:01.170Z,2.65
2023-08-15T03:52:28.280Z,2.60
2023-08-15T03:54:55.300Z,2.90
2023-08-15T03:57:23.356Z,2.72
2023-08-15T03:59:50.718Z,2.65
2023-08-15T04:02:19.092Z,2.70
2023-08-15T04:04:46.131Z,2.20
2023-08-15T04:07:13.181Z,2.63
2023-08-15T04:09:40.169Z,2.70
2023-08-15T04:12:07.785Z,2.38
2023-08-15T04:14:35.326Z,2.20
2023-08-15T04:17:02.274Z,3.20
2023-08-15T04:19:29.269Z,2.40
2023-08-15T04:21:56.296Z,2.40
2023-08-15T04:24:23.383Z,2.33
2023-08-15T04:26:50.411Z,2.45
2023-08-15T04:29:17.393Z,2.55
2023-08-15T04:31:44.473Z,2.53
2023-08-15T04:34:11.467Z,2.53
2023-08-15T04:36:44.861Z,3.03
2023-08-15T04:39:11.947Z,2.30
2023-08-15T04:41:39.046Z,2.30
2023-08-15T04:44:07.651Z,2.78
2023-08-15T04:46:34.690Z,2.50
2023-08-15T04:49:01.675Z,2.30
2023-08-15T04:51:28.692Z,2.25
2023-08-15T04:53:56.065Z,2.42
2023-08-15T04:56:24.127Z,2.20
2023-08-15T04:58:51.501Z,2.25
2023-08-15T05:01:18.568Z,2.45
2023-08-15T05:03:45.824Z,2.45
2023-08-15T05:06:12.852Z,2.25
2023-08-15T05:08:39.881Z,2.00
2023-08-15T05:11:06.925Z,2.33
2023-08-15T05:13:34.190Z,2.45
2023-08-15T05:16:01.255Z,2.42
2023-08-15T05:18:29.212Z,2.55
2023-08-15T05:20:56.664Z,2.83
2023-08-15T05:23:23.769Z,3.00
2023-08-15T05:25:52.460Z,2.35
2023-08-15T05:28:20.362Z,2.28
2023-08-15T05:30:48.930Z,2.50
2023-08-15T05:33:15.958Z,2.53
2023-08-15T05:35:43.769Z,3.63
2023-08-15T05:38:11.497Z,2.67
2023-08-15T05:40:40.411Z,2.53
2023-08-15T05:43:07.476Z,2.30
2023-08-15T05:45:34.677Z,2.50
2023-08-15T05:48:01.735Z,2.58
2023-08-15T05:50:28.776Z,2.40
2023-08-15T05:52:55.805Z,2.17
2023-08-15T05:55:22.841Z,2.55
2023-08-15T05:57:49.814Z,2.08
2023-08-15T06:00:16.928Z,1.92
2023-08-15T06:02:44.231Z,2.15
2023-08-15T06:05:11.258Z,2.40
2023-08-15T06:07:38.290Z,2.67
2023-08-15T06:10:05.823Z,2.10
2023-08-15T06:12:34.188Z,2.22
2023-08-15T06:15:01.242Z,1.92
2023-08-15T06:17:28.317Z,2.35
2023-08-15T06:19:55.447Z,1.88
2023-08-15T06:22:22.429Z,2.00
2023-08-15T06:24:49.492Z,1.75
2023-08-15T06:27:16.658Z,2.10
2023-08-15T06:29:43.627Z,1.92
2023-08-15T06:32:29.014Z,2.17
2023-08-15T06:34:56.199Z,2.17
2023-08-15T06:37:23.929Z,2.10
2023-08-15T06:39:51.106Z,2.10
2023-08-15T06:42:18.112Z,1.90
2023-08-15T06:44:45.201Z,1.98
2023-08-15T06:47:12.574Z,1.98
2023-08-15T06:49:39.895Z,2.13
2023-08-15T06:52:08.470Z,1.95
2023-08-15T06:54:37.472Z,2.15
2023-08-15T06:57:04.679Z,1.80
2023-08-15T06:59:36.474Z,2.05
2023-08-15T07:02:03.669Z,2.00
2023-08-15T07:04:30.643Z,2.20
2023-08-15T07:06:58.446Z,2.42
2023-08-15T07:09:25.962Z,1.90
2023-08-15T07:11:52.992Z,1.60
2023-08-15T07:14:20.106Z,1.90
2023-08-15T07:16:47.904Z,2.38
2023-08-15T07:19:14.972Z,2.10
2023-08-15T07:21:42.821Z,1.95
2023-08-15T07:24:09.888Z,1.80
2023-08-15T07:26:37.486Z,2.00
2023-08-15T07:29:06.125Z,2.17
2023-08-15T07:31:33.470Z,2.53
2023-08-15T07:34:00.452Z,1.60
2023-08-15T07:36:27.480Z,2.05
2023-08-15T07:38:54.592Z,2.03
2023-08-15T07:41:21.630Z,2.20
2023-08-15T07:43:48.671Z,1.75
2023-08-15T07:46:15.708Z,1.65
2023-08-15T07:48:43.963Z,1.90
2023-08-15T07:51:11.940Z,1.50
2023-08-15T07:53:39.003Z,2.00
2023-08-15T07:56:06.056Z,1.80
2023-08-15T07:58:34.651Z,1.38
2023-08-15T08:01:01.691Z,2.05
2023-08-15T08:03:28.894Z,1.65
2023-08-15T08:05:56.221Z,1.95
2023-08-15T08:08:23.684Z,1.75
2023-08-15T08:10:50.642Z,1.70
2023-08-15T08:13:20.412Z,1.50
2023-08-15T08:15:47.893Z,1.83
2023-08-15T08:18:14.953Z,2.10
2023-08-15T08:20:42.109Z,1.85
2023-08-15T08:23:09.394Z,1.95
2023-08-15T08:25:37.201Z,1.75
2023-08-15T08:28:04.462Z,1.90
2023-08-15T08:30:32.652Z,1.92
2023-08-15T08:32:59.953Z,2.05
2023-08-15T08:35:27.195Z,1.85
2023-08-15T08:37:56.474Z,1.63
2023-08-15T08:40:23.855Z,1.67
2023-08-15T08:42:50.921Z,1.90
2023-08-15T08:45:22.190Z,1.60
2023-08-15T08:47:49.251Z,1.80
2023-08-15T08:50:17.887Z,2.50
2023-08-15T08:52:51.625Z,2.30
2023-08-15T08:55:21.123Z,2.90
2023-08-15T08:57:54.029Z,2.40
2023-08-15T09:00:29.452Z,1.67
2023-08-15T09:02:57.962Z,1.52
2023-08-15T09:05:25.979Z,1.70
2023-08-15T09:07:53.704Z,1.20
2023-08-15T09:10:23.040Z,1.40
2023-08-15T09:12:50.307Z,1.40
2023-08-15T09:15:17.300Z,1.73
2023-08-15T09:17:45.043Z,1.90
2023-08-15T09:20:15.097Z,2.13
2023-08-15T09:22:46.456Z,1.52
2023-08-15T09:25:21.485Z,1.67
2023-08-15T09:27:48.764Z,1.40
2023-08-15T09:30:18.083Z,1.40
2023-08-15T09:32:46.730Z,1.75
2023-08-15T09:35:15.980Z,1.30
2023-08-15T09:37:44.531Z,1.95
2023-08-15T09:40:24.721Z,1.63
2023-08-15T09:42:53.551Z,1.30
2023-08-15T09:45:21.191Z,1.42
2023-08-15T09:47:48.375Z,1.60
2023-08-15T09:50:17.104Z,1.92
2023-08-15T09:52:47.931Z,1.67
2023-08-15T09:55:18.251Z,1.33
2023-08-15T09:57:45.786Z,1.33
2023-08-15T10:00:14.559Z,1.35
2023-08-15T10:03:03.941Z,1.50
2023-08-15T10:05:34.981Z,1.10
2023-08-15T10:08:02.928Z,1.80
2023-08-15T10:10:34.257Z,1.50
2023-08-15T10:13:02.308Z,1.10
2023-08-15T10:15:31.631Z,1.42
2023-08-15T10:17:59.693Z,1.88
2023-08-15T10:20:27.143Z,1.90
2023-08-15T10:22:59.482Z,1.50
2023-08-15T10:25:27.765Z,1.55
2023-08-15T10:27:56.136Z,1.27
2023-08-15T10:30:42.797Z,1.35
2023-08-15T10:33:14.442Z,1.50
2023-08-15T10:35:56.362Z,2.00
2023-08-15T10:38:47.016Z,1.30
2023-08-15T10:41:21.590Z,1.40
2023-08-15T10:43:54.040Z,2.03
2023-08-15T10:46:28.346Z,1.73
2023-08-15T10:51:28.154Z,1.30
2023-08-15T10:54:00.745Z,1.33
2023-08-15T10:56:32.983Z,1.15
2023-08-15T10:59:05.444Z,1.15
2023-08-15T11:01:33.057Z,1.40
2023-08-15T11:04:00.692Z,1.38
2023-08-15T11:06:30.116Z,1.52
2023-08-15T11:09:00.506Z,1.63
2023-08-15T11:11:27.572Z,1.40
2023-08-15T11:13:55.840Z,1.25
2023-08-15T11:16:24.600Z,1.30
2023-08-15T11:18:51.934Z,1.50
2023-08-15T11:21:20.228Z,1.80
2023-08-15T11:23:49.346Z,1.00
2023-08-15T11:26:17.904Z,1.10
2023-08-15T11:28:45.599Z,1.35
2023-08-15T11:31:22.726Z,1.30
2023-08-15T11:33:52.731Z,1.35
2023-08-15T11:36:21.485Z,1.63
2023-08-15T11:38:48.598Z,1.35
2023-08-15T11:41:16.007Z,1.63
2023-08-15T11:43:43.160Z,1.33
2023-08-15T11:46:11.918Z,1.20
2023-08-15T11:48:38.932Z,1.70
2023-08-15T11:51:06.879Z,1.67
2023-08-15T11:53:34.210Z,1.38
2023-08-15T11:56:01.490Z,1.52
2023-08-15T11:58:29.395Z,1.42
2023-08-15T12:01:07.670Z,1.30
2023-08-15T12:03:35.616Z,1.35
2023-08-15T12:06:07.377Z,1.05
2023-08-15T12:08:34.648Z,1.23
2023-08-15T12:11:07.515Z,1.65
2023-08-15T12:13:40.441Z,1.50
2023-08-15T12:16:10.074Z,1.52
2023-08-15T12:18:38.729Z,1.77
2023-08-15T12:21:06.048Z,1.60
2023-08-15T12:23:33.094Z,1.35
2023-08-15T12:26:00.102Z,1.17
2023-08-15T12:28:28.963Z,1.35
2023-08-15T12:30:56.577Z,1.70
2023-08-15T12:33:39.169Z,1.50
2023-08-15T12:36:08.749Z,1.10
2023-08-15T12:38:35.911Z,2.25
2023-08-15T12:41:03.508Z,3.00
2023-08-15T12:43:30.493Z,2.50
2023-08-15T12:45:57.734Z,1.90
2023-08-15T12:48:25.109Z,2.00
2023-08-15T12:50:52.374Z,1.88
2023-08-15T12:53:19.554Z,2.03
2023-08-15T12:55:46.881Z,1.67
2023-08-15T12:58:13.905Z,2.33
2023-08-15T13:00:42.776Z,2.00
2023-08-15T13:03:10.786Z,2.00
2023-08-15T13:05:38.004Z,2.42
2023-08-15T13:08:05.139Z,2.00
2023-08-15T13:10:32.194Z,2.20
2023-08-15T13:12:59.419Z,2.65
2023-08-15T13:15:27.050Z,1.77
2023-08-15T13:17:55.678Z,1.98
2023-08-15T13:20:22.920Z,2.03
2023-08-15T13:22:50.168Z,1.92
2023-08-15T13:25:17.116Z,1.95
2023-08-15T13:27:44.202Z,1.88
2023-08-15T13:30:11.401Z,2.05
2023-08-15T13:32:38.725Z,2.10
2023-08-15T13:35:06.065Z,2.10
2023-08-15T13:37:33.172Z,2.45
2023-08-15T13:40:00.975Z,1.95
2023-08-15T13:42:37.558Z,2.30
2023-08-15T13:45:09.665Z,1.88
2023-08-15T13:47:40.430Z,1.85
2023-08-15T13:50:09.838Z,2.55
2023-08-15T13:52:38.102Z,2.10
2023-08-15T13:55:06.278Z,2.10
2023-08-15T13:57:33.942Z,1.90
2023-08-15T14:00:02.441Z,2.20
2023-08-15T14:02:35.407Z,1.50
2023-08-15T14:05:04.958Z,2.00
2023-08-15T14:07:32.315Z,1.85
2023-08-15T14:09:59.518Z,2.08
2023-08-15T14:12:28.041Z,1.98
2023-08-15T14:14:55.310Z,2.10
2023-08-15T14:17:22.387Z,1.83
2023-08-15T14:19:49.371Z,2.50
2023-08-15T14:22:16.580Z,1.75
2023-08-15T14:24:47.894Z,1.50
2023-08-15T14:27:15.890Z,2.10
2023-08-15T14:29:44.404Z,2.17
2023-08-15T14:32:12.805Z,2.22
2023-08-15T14:34:39.911Z,1.92
2023-08-15T14:37:06.977Z,2.60
2023-08-15T14:39:33.978Z,2.60
2023-08-15T14:42:00.998Z,2.55
2023-08-15T14:44:28.363Z,2.33
2023-08-15T14:46:55.438Z,2.65
2023-08-15T14:49:22.543Z,2.25
2023-08-15T14:51:49.579Z,2.50
2023-08-15T14:54:18.384Z,1.98
2023-08-15T14:56:45.616Z,2.08
2023-08-15T14:59:12.664Z,2.50
2023-08-15T15:01:40.019Z,2.05
2023-08-15T15:04:07.584Z,2.00
2023-08-15T15:06:34.645Z,2.17
2023-08-15T15:09:01.860Z,1.98
2023-08-15T15:11:28.929Z,1.98
2023-08-15T15:13:56.118Z,2.10
2023-08-15T15:16:23.259Z,1.88
2023-08-15T15:18:50.262Z,2.10
2023-08-15T15:21:17.322Z,1.95
2023-08-15T15:23:44.269Z,1.95
2023-08-15T15:26:11.291Z,2.15
2023-08-15T15:28:38.249Z,2.17
2023-08-15T15:31:05.257Z,2.60
2023-08-15T15:33:32.241Z,2.15
2023-08-15T15:35:59.245Z,2.20
2023-08-15T15:38:26.292Z,1.98
2023-08-15T15:40:53.298Z,2.00
2023-08-15T15:43:21.475Z,2.17
2023-08-15T15:45:48.687Z,2.00
2023-08-15T15:48:15.846Z,2.08
2023-08-15T15:50:42.893Z,2.47
2023-08-15T15:53:10.028Z,2.28
2023-08-15T15:55:37.021Z,1.83
2023-08-15T15:58:04.226Z,2.13
2023-08-15T16:00:31.940Z,2.33
2023-08-15T16:02:59.038Z,2.10
2023-08-15T16:05:26.281Z,2.08
2023-08-15T16:07:53.659Z,1.60
2023-08-15T16:10:20.701Z,1.90
2023-08-15T16:12:48.451Z,1.90
2023-08-15T16:15:16.569Z,1.83
2023-08-15T16:17:45.914Z,2.15
2023-08-15T16:20:13.844Z,1.80
2023-08-15T16:22:42.562Z,1.75
2023-08-15T16:25:10.096Z,1.70
2023-08-15T16:27:37.639Z,2.15
2023-08-15T16:30:16.465Z,1.48
2023-08-15T16:32:46.880Z,1.88
2023-08-15T16:35:14.413Z,1.92
2023-08-15T16:37:41.944Z,1.50
2023-08-15T16:40:09.550Z,1.63
2023-08-15T16:42:36.552Z,1.58
2023-08-15T16:45:04.431Z,1.48
2023-08-15T16:47:31.588Z,1.80
2023-08-15T16:49:58.681Z,1.83
2023-08-15T16:52:25.974Z,1.58
2023-08-15T16:54:53.260Z,1.80
2023-08-15T16:57:22.608Z,1.55
2023-08-15T16:59:49.599Z,1.30
2023-08-15T17:02:16.565Z,1.38
2023-08-15T17:04:45.270Z,1.90
2023-08-15T17:07:12.301Z,1.50
2023-08-15T17:09:39.312Z,1.70
2023-08-15T17:12:06.852Z,1.58
2023-08-15T17:14:33.940Z,1.52
2023-08-15T17:17:01.263Z,1.50
2023-08-15T17:19:28.326Z,1.70
2023-08-15T17:21:55.759Z,1.30
2023-08-15T17:24:22.969Z,1.48
2023-08-15T17:26:50.021Z,1.40
2023-08-15T17:29:17.122Z,1.60
2023-08-15T17:31:44.546Z,1.50
2023-08-15T17:34:11.720Z,1.40
2023-08-15T17:36:38.916Z,1.42
2023-08-15T17:39:06.383Z,1.30
2023-08-15T17:41:33.410Z,1.60
2023-08-15T17:44:00.796Z,1.40
2023-08-15T17:46:28.029Z,1.30
2023-08-15T17:48:55.025Z,0.95
2023-08-15T17:51:22.080Z,1.25
2023-08-15T17:53:49.103Z,1.30
2023-08-15T17:56:16.138Z,1.20
2023-08-15T17:58:50.788Z,1.20
2023-08-15T18:01:19.215Z,1.17
2023-08-15T18:03:47.471Z,1.35
2023-08-15T18:06:15.629Z,1.38
2023-08-15T18:08:42.670Z,1.60
2023-08-15T18:11:09.886Z,1.20
2023-08-15T18:13:37.695Z,1.40
2023-08-15T18:16:05.022Z,1.50
2023-08-15T18:18:32.098Z,1.17
2023-08-15T18:20:59.139Z,1.30
2023-08-15T18:23:26.073Z,1.30
2023-08-15T18:25:53.060Z,1.30
2023-08-15T18:28:20.067Z,1.05
2023-08-15T18:30:47.033Z,1.50
2023-08-15T18:33:15.403Z,1.30
2023-08-15T18:35:42.780Z,1.38
2023-08-15T18:38:09.956Z,1.00
2023-08-15T18:40:40.096Z,1.65
2023-08-15T18:43:09.351Z,1.55
2023-08-15T18:45:43.673Z,2.10
2023-08-15T18:48:11.889Z,2.20
2023-08-15T18:50:44.231Z,2.50
2023-08-15T18:53:12.338Z,2.45
2023-08-15T18:55:41.046Z,3.10
2023-08-15T18:58:10.681Z,3.47
2023-08-15T19:00:44.356Z,4.65
2023-08-15T19:03:12.353Z,5.38
2023-08-15T19:05:44.171Z,3.70
2023-08-15T19:08:11.833Z,3.97
2023-08-15T19:10:44.689Z,3.97
2023-08-15T19:13:12.181Z,3.78
2023-08-15T19:15:39.844Z,3.97
2023-08-15T19:18:07.425Z,3.50
2023-08-15T19:20:34.469Z,3.63
2023-08-15T19:23:01.527Z,3.10
2023-08-15T19:25:30.984Z,3.40
2023-08-15T19:27:58.122Z,3.35
2023-08-15T19:30:25.205Z,2.80
2023-08-15T19:32:52.341Z,3.00
2023-08-15T19:35:19.493Z,3.70
2023-08-15T19:37:49.328Z,3.65
2023-08-15T19:40:16.400Z,2.95
2023-08-15T19:42:46.941Z,2.58
2023-08-15T19:45:14.729Z,2.67
2023-08-15T19:47:42.664Z,2.55
2023-08-15T19:50:11.014Z,2.38
2023-08-15T19:52:38.399Z,2.47
2023-08-15T19:55:06.223Z,2.50
2023-08-15T19:57:33.457Z,2.63
2023-08-15T20:00:00.621Z,2.10
2023-08-15T20:02:28.121Z,2.38
2023-08-15T20:04:55.372Z,2.97
2023-08-15T20:07:22.712Z,2.80
2023-08-15T20:10:03.759Z,3.08
2023-08-15T20:12:36.051Z,2.80
2023-08-15T20:15:03.436Z,2.28
2023-08-15T20:17:30.612Z,2.90
2023-08-15T20:19:57.655Z,2.40
2023-08-15T20:22:24.916Z,2.65
2023-08-15T20:24:52.235Z,2.30
2023-08-15T20:27:19.358Z,2.60
2023-08-15T20:29:46.383Z,2.20
2023-08-15T20:32:13.578Z,2.92
2023-08-15T20:34:40.631Z,2.90
2023-08-15T20:37:07.768Z,2.47
2023-08-15T20:39:35.079Z,1.90
2023-08-15T20:42:02.117Z,2.28
2023-08-15T20:44:29.059Z,2.15
2023-08-15T20:46:56.333Z,1.92
2023-08-15T20:49:23.410Z,2.13
2023-08-15T20:51:50.591Z,2.40
2023-08-15T20:54:17.909Z,2.45
2023-08-15T20:56:45.265Z,2.33
2023-08-15T20:59:12.291Z,2.03
2023-08-15T21:01:39.590Z,2.20
2023-08-15T21:04:06.869Z,2.17
2023-08-15T21:06:33.884Z,1.77
2023-08-15T21:09:01.053Z,1.88
2023-08-15T21:11:28.123Z,2.00
2023-08-15T21:13:56.158Z,2.33
2023-08-15T21:16:23.276Z,1.65
2023-08-15T21:18:50.331Z,1.98
2023-08-15T21:21:17.367Z,2.05
2023-08-15T21:23:44.354Z,2.20
2023-08-15T21:26:11.432Z,1.63
2023-08-15T21:28:38.484Z,2.58
2023-08-15T21:31:05.926Z,2.35
2023-08-15T21:33:32.998Z,7.22
2023-08-15T21:36:00.117Z,3.70
2023-08-15T21:38:27.159Z,3.53
2023-08-15T21:40:54.196Z,3.38
2023-08-15T21:43:21.555Z,3.53
2023-08-15T21:45:49.115Z,3.40
2023-08-15T21:48:16.288Z,3.30
2023-08-15T21:50:43.455Z,4.32
2023-08-15T21:53:10.876Z,4.22
2023-08-15T21:55:37.910Z,4.47
2023-08-15T21:58:05.107Z,2.97
2023-08-15T22:00:32.271Z,3.05
2023-08-15T22:02:59.587Z,2.97
2023-08-15T22:05:27.715Z,3.10
2023-08-15T22:07:54.925Z,3.30
2023-08-15T22:10:23.511Z,2.70
2023-08-15T22:12:51.513Z,3.05
2023-08-15T22:15:19.697Z,2.85
2023-08-15T22:17:50.614Z,2.85
2023-08-15T22:20:24.589Z,2.53
2023-08-15T22:22:51.594Z,2.58
2023-08-15T22:25:20.286Z,2.35
2023-08-15T22:27:49.820Z,2.60
2023-08-15T22:30:17.106Z,2.88
2023-08-15T22:32:44.162Z,2.83
2023-08-15T22:35:11.390Z,2.47
2023-08-15T22:37:38.403Z,2.03
2023-08-15T22:40:06.242Z,2.40
2023-08-15T22:42:33.252Z,2.88
2023-08-15T22:45:00.248Z,2.20
2023-08-15T22:47:27.226Z,2.20
2023-08-15T22:49:54.337Z,2.50
2023-08-15T22:52:21.278Z,3.00
2023-08-15T22:54:48.317Z,2.45
2023-08-15T22:57:15.550Z,2.20
2023-08-15T22:59:42.586Z,2.40
2023-08-15T23:02:10.026Z,2.20
2023-08-15T23:04:37.186Z,2.42
2023-08-15T23:07:04.386Z,2.67
2023-08-15T23:09:31.369Z,2.58
2023-08-15T23:11:58.553Z,2.70
2023-08-15T23:14:25.513Z,2.03
2023-08-15T23:16:52.504Z,2.53
2023-08-15T23:19:19.500Z,2.13
2023-08-15T23:21:46.668Z,2.30
2023-08-15T23:24:13.805Z,2.58
2023-08-15T23:26:40.786Z,2.65
2023-08-15T23:29:07.758Z,2.10
2023-08-15T23:31:36.386Z,2.40
2023-08-15T23:34:05.049Z,2.25
2023-08-15T23:36:33.306Z,1.95
2023-08-15T23:39:00.656Z,2.40
2023-08-15T23:41:28.555Z,2.10
2023-08-15T23:43:55.692Z,2.20
2023-08-15T23:46:24.359Z,2.00
2023-08-15T23:48:54.528Z,1.98
2023-08-15T23:51:22.019Z,2.10
2023-08-15T23:53:51.345Z,2.05
2023-08-15T23:56:18.358Z,2.10
2023-08-15T23:58:46.233Z,2.00
